TFM - Tactical Decision Aid
ID: Runway Winds: CIG/VIS Threshold:

KLGA - New York/La Guardia, NY, US

Updated at: 1812 UTC 23 Apr 2019
Latest TAF at: 1721 UTC 23 Apr 2019

TAF Board

Time1751Z 23/19Z 23/20Z 23/21Z 23/22Z 23/23Z 24/00Z 24/01Z 24/02Z 24/03Z 24/04Z 24/05Z 24/06Z 24/07Z>>
Type OBS PRVL PRVL PRVL PRVL PRVL PRVL PRVL PRVL PRVL PRVL PRVL PRVL PRVL
VIS 10 >6 >6 >6 >6 >6 >6 >6 >6 >6 >6 >6 >6 >6
CIG -- 250 250 250 250 250 250 250 60 60 60 60 60 60
Cover SCT BKN BKN BKN BKN BKN BKN BKN BKN BKN BKN BKN BKN BKN
FltCat VFR VFR VFR VFR VFR VFR VFR VFR VFR VFR VFR VFR VFR VFR
WX -- -- -- -- -- -- -- -- -- -- -- -- -- --
WDir VRB 180 180 180 180 180 180 180 210 210 210 210 210 210
WSpd 6 10 10 14 14 14 14 14 13 13 13 13 13 13
WGst -- -- -- -- -- -- -- -- -- -- -- -- -- --

TDA Impact Legend

  None Marginal Slight Moderate High
Visibility (sm) >5 3≤X≤5 1≤X<3 0.5≤X<1 <0.5
Ceiling (100 ft) >30 10≤X≤30 4≤X<10 2≤X<4 <2
Wind Speed (kt) <15 15≤X<25 25≤X<30 ≥30
Wind Gust (kt) <15 15≤X<25 25≤X<35 ≥35
Weather No Wx Reported VCTS -TS,-FZRA TS,FZRA +TS,+FZRA
TAF
KLGA 231721Z 2318/2424 25005KT P6SM FEW060 SCT250
  FM231900 18010KT P6SM FEW060 BKN250
  FM232100 18014KT P6SM FEW060 BKN250
  FM240200 21013KT P6SM SCT035 BKN060 BKN120
  FM240800 30014KT P6SM SCT060
  FM241400 30015G25KT P6SM FEW060


METAR
KLGA 231751Z VRB06KT 10SM FEW140 SCT250 23/07 A2990 RMK AO2 SLP124 T02330072 10233 20139 56025
KLGA 231651Z VRB03KT 10SM FEW140 FEW250 22/07 A2991 RMK AO2 SLP127 T02170072
KLGA 231551Z 00000KT 10SM FEW250 20/08 A2994 RMK AO2 SLP138 T02000083
KLGA 231451Z VRB04KT 10SM CLR 18/09 A2997 RMK AO2 SLP149 T01830089 58007

Radar Display
Forecast Discussion